Kingston, Jamaica

5:23 PM EST on August 23, 2017 (GMT -0500)
Norman Manley International | | Change Station

Elev 30 ft 17.93 °N, 76.78 °W | Updated 23 minutes ago

Rain
Rain
88 °F
Feels Like 98 °F
N
10
Wind Variable Wind from ESE

Today
High -- | Low -- °F
--% Chance of Precip.
Yesterday
High -- | Low -- °F
Precip. -- in
Pressure 29.80 in
Visibility 6.2 miles
Clouds Scattered Clouds 1800 ft
Scattered Clouds 2000 ft
Heat Index 98 °F
Dew Point 75 °F
Humidity 66%
Rainfall 0.00 in
Snow Depth Not available.
5:51 AM 6:27 PM
Waxing Crescent, 6% visible
METAR MKJP 232200Z 12009KT 9999 -SHRA SCT018 SCT020CB 31/24 Q1009
Pressure 29.80 in
Visibility 6.2 miles
Clouds Scattered Clouds 1800 ft
Scattered Clouds 2000 ft
Heat Index 98 °F
Dew Point 75 °F
Humidity 66%
Rainfall 0.00 in
Snow Depth Not available.
5:51 AM 6:27 PM
Waxing Crescent, 6% visible
METAR MKJP 232200Z 12009KT 9999 -SHRA SCT018 SCT020CB 31/24 Q1009

Get Severe Weather Alerts

Thanks for signing up!

Be on the lookout for a verification email in your inbox.

You'll start receiving the daily forecast at 6 AM.

×

10-Day Weather Forecast

No radar image for this location.
×

Almanac

Astronomy

Aug. 23, 2017 Rise Set
Actual Time
Civil Twilight
Nautical Twilight
Astronomical Twilight
Moon
Length of Visible Light
Length of Day
Tomorrow will be .
, % of the Moon is Illuminated

Today's Extremes

Country Highs Country Lows

Community

WunderPhotos

Category 6

Welcome to Category 6. This is the collective home for Weather Underground's featured writeups by Dr. Jeff Masters (right), Bob Henson (left), Chris Burt, and other regular contributors.

Nearby

Air Quality

  Air Quality AQ Index Pollutant
Not available.

Snow Depth

Station Depth Elevation

Earthquake Activity

City Distance Mag. Time & Date
Minimum magnitude displayed is 2.5.

Coastal Water Temperatures

Place Temperature

Stations

Nearby Weather Stations

Station Location Temp. Windchill Dew Point Humidity Wind Precip. Elev Updated Type